Aérodrome :
LOGIN :

S'inscrire | Disclaimer

   EN    FR    IT 

 










Légende :    VFR   VFR Marginal   IFR   IFR Intensif   IFR Très Intensif
Visi : 
Plafond : 
>= 8 km
>= 3000ft
5 à 8 km
1000 à 3000 ft
1500m à 5 km
500 à 1000 ft
800 à 1500m
200 à 500 ft
< 800m
< 200 ft
Symboles :   Orages  Brouillard  Fortes neiges  Fortes précipitations  Vent > 20 kt
SIGMETs :   Divers  Orages  Givrage  Turbulence  Onde Orograph.  Cendres Volcan.







- Altitude de l'aérodrome : 13 ft
- Code IATA : SNR
- Voir les cartes d'approche


LFRZ - St-Nazaire

DERNIER METAR :
  • 241230Z AUTO 03010KT 350V050 9999 FEW042 BKN050 13/05 Q1029 NOSIG

METARs EXPIRÉS :
  • 241200Z AUTO 02012KT 350V050 9999 FEW039 BKN050 13/05 Q1029 NOSIG
  • 241130Z AUTO 03011KT 360V080 9999 FEW042 BKN050 14/05 Q1029 NOSIG
  • 241100Z AUTO 02009KT 9999 BKN044 13/04 Q1029 NOSIG
  • 241030Z AUTO 05009KT 020V080 9000 FEW026 13/06 Q1030 NOSIG
  • 241000Z AUTO 04008KT 360V080 9000 NSC 12/07 Q1029 NOSIG

TAF TAF LFRZ
Valide du 24 à 12h jusqu'au 25 à 12h UTC


241100Z 2412/2512 02008KT 9999 SCT040
TEMPO 2504/2507 3000 BR
PROB30
TEMPO 2504/2507 BKN003
Pas de NOTAMs connus pour ce terrain.



MET'MAP, la Météo Aéronautique d'un coup d'oeil ! - Copyright ORBIFLY Décembre 2007 - Disclaimer

ORBIFLY MET'MAP TEAM :

Programmation & Développement : Alexandra Zaïnal
Conception & Développement : Baudouin d'Aumeries
Co-Programmation & Développement : Marc-Olivier Méhu
Soutien technique & logistique : Manuel Goepfert

Contact : metmap@orbifly.com




SOURCES & CREDITS :

   NOAA